sensor_id;sensor_type;location;lat;lon;timestamp;P1;durP1;ratioP1;P2;durP2;ratioP2
26113;SDS011;13966;48.828;9.064;2023-04-25T00:00:32;2.67;;;1.92;;
26113;SDS011;13966;48.828;9.064;2023-04-25T00:02:58;5.22;;;2.00;;
26113;SDS011;13966;48.828;9.064;2023-04-25T00:05:25;2.70;;;1.67;;
26113;SDS011;13966;48.828;9.064;2023-04-25T00:07:51;3.33;;;1.83;;
26113;SDS011;13966;48.828;9.064;2023-04-25T00:10:18;1.80;;;1.70;;
26113;SDS011;13966;48.828;9.064;2023-04-25T00:12:44;3.97;;;1.73;;
26113;SDS011;13966;48.828;9.064;2023-04-25T00:15:10;3.85;;;1.70;;
26113;SDS011;13966;48.828;9.064;2023-04-25T00:17:39;3.50;;;1.70;;
26113;SDS011;13966;48.828;9.064;2023-04-25T00:20:06;2.67;;;1.90;;
26113;SDS011;13966;48.828;9.064;2023-04-25T00:22:35;3.20;;;2.00;;
26113;SDS011;13966;48.828;9.064;2023-04-25T00:25:05;3.03;;;1.48;;
26113;SDS011;13966;48.828;9.064;2023-04-25T00:27:31;3.20;;;1.80;;
26113;SDS011;13966;48.828;9.064;2023-04-25T00:29:58;5.68;;;1.88;;
26113;SDS011;13966;48.828;9.064;2023-04-25T00:32:24;1.90;;;1.73;;
26113;SDS011;13966;48.828;9.064;2023-04-25T00:34:50;4.55;;;1.80;;
26113;SDS011;13966;48.828;9.064;2023-04-25T00:37:16;2.80;;;1.90;;
26113;SDS011;13966;48.828;9.064;2023-04-25T00:39:43;4.53;;;1.70;;
26113;SDS011;13966;48.828;9.064;2023-04-25T00:42:09;2.95;;;1.88;;
26113;SDS011;13966;48.828;9.064;2023-04-25T00:44:35;3.88;;;2.10;;
26113;SDS011;13966;48.828;9.064;2023-04-25T00:47:02;2.00;;;1.80;;
26113;SDS011;13966;48.828;9.064;2023-04-25T00:49:28;4.03;;;2.20;;
26113;SDS011;13966;48.828;9.064;2023-04-25T00:51:54;5.13;;;1.90;;
26113;SDS011;13966;48.828;9.064;2023-04-25T00:54:21;2.50;;;1.80;;
26113;SDS011;13966;48.828;9.064;2023-04-25T00:56:50;3.30;;;2.30;;
26113;SDS011;13966;48.828;9.064;2023-04-25T00:59:16;2.13;;;1.77;;
26113;SDS011;13966;48.828;9.064;2023-04-25T01:01:45;4.03;;;1.85;;
26113;SDS011;13966;48.828;9.064;2023-04-25T01:04:12;3.00;;;2.10;;
26113;SDS011;13966;48.828;9.064;2023-04-25T01:06:38;2.83;;;1.90;;
26113;SDS011;13966;48.828;9.064;2023-04-25T01:09:04;4.35;;;2.15;;
26113;SDS011;13966;48.828;9.064;2023-04-25T01:11:30;3.63;;;2.25;;
26113;SDS011;13966;48.828;9.064;2023-04-25T01:13:57;4.45;;;2.45;;
26113;SDS011;13966;48.828;9.064;2023-04-25T01:16:23;3.50;;;2.40;;
26113;SDS011;13966;48.828;9.064;2023-04-25T01:18:49;3.00;;;2.17;;
26113;SDS011;13966;48.828;9.064;2023-04-25T01:21:16;5.60;;;2.33;;
26113;SDS011;13966;48.828;9.064;2023-04-25T01:23:42;4.07;;;2.58;;
26113;SDS011;13966;48.828;9.064;2023-04-25T01:26:09;5.00;;;2.42;;
26113;SDS011;13966;48.828;9.064;2023-04-25T01:28:35;6.05;;;2.53;;
26113;SDS011;13966;48.828;9.064;2023-04-25T01:31:02;4.53;;;2.58;;
26113;SDS011;13966;48.828;9.064;2023-04-25T01:33:28;8.98;;;2.47;;
26113;SDS011;13966;48.828;9.064;2023-04-25T01:35:55;5.78;;;2.58;;
26113;SDS011;13966;48.828;9.064;2023-04-25T01:38:21;3.88;;;2.95;;
26113;SDS011;13966;48.828;9.064;2023-04-25T01:40:47;5.00;;;3.05;;
26113;SDS011;13966;48.828;9.064;2023-04-25T01:43:14;4.30;;;3.10;;
26113;SDS011;13966;48.828;9.064;2023-04-25T01:45:41;5.72;;;3.03;;
26113;SDS011;13966;48.828;9.064;2023-04-25T01:48:08;4.22;;;2.90;;
26113;SDS011;13966;48.828;9.064;2023-04-25T01:50:34;5.50;;;3.10;;
26113;SDS011;13966;48.828;9.064;2023-04-25T01:53:00;4.63;;;2.85;;
26113;SDS011;13966;48.828;9.064;2023-04-25T01:55:29;6.70;;;3.10;;
26113;SDS011;13966;48.828;9.064;2023-04-25T01:57:55;3.38;;;2.85;;
26113;SDS011;13966;48.828;9.064;2023-04-25T02:00:21;3.63;;;3.17;;
26113;SDS011;13966;48.828;9.064;2023-04-25T02:02:47;4.50;;;3.00;;
26113;SDS011;13966;48.828;9.064;2023-04-25T02:05:15;6.78;;;3.40;;
26113;SDS011;13966;48.828;9.064;2023-04-25T02:07:41;3.50;;;2.53;;
26113;SDS011;13966;48.828;9.064;2023-04-25T02:10:07;4.28;;;2.83;;
26113;SDS011;13966;48.828;9.064;2023-04-25T02:12:34;7.50;;;3.42;;
26113;SDS011;13966;48.828;9.064;2023-04-25T02:15:00;4.30;;;2.88;;
26113;SDS011;13966;48.828;9.064;2023-04-25T02:17:26;3.63;;;2.80;;
26113;SDS011;13966;48.828;9.064;2023-04-25T02:19:52;5.65;;;3.25;;
26113;SDS011;13966;48.828;9.064;2023-04-25T02:22:18;3.45;;;3.00;;
26113;SDS011;13966;48.828;9.064;2023-04-25T02:24:45;3.85;;;2.70;;
26113;SDS011;13966;48.828;9.064;2023-04-25T02:27:11;5.95;;;3.00;;
26113;SDS011;13966;48.828;9.064;2023-04-25T02:29:37;4.55;;;3.53;;
26113;SDS011;13966;48.828;9.064;2023-04-25T02:32:03;6.57;;;3.30;;
26113;SDS011;13966;48.828;9.064;2023-04-25T02:34:30;5.43;;;3.08;;
26113;SDS011;13966;48.828;9.064;2023-04-25T02:36:56;4.72;;;2.83;;
26113;SDS011;13966;48.828;9.064;2023-04-25T02:39:22;6.47;;;2.90;;
26113;SDS011;13966;48.828;9.064;2023-04-25T02:41:50;6.70;;;3.33;;
26113;SDS011;13966;48.828;9.064;2023-04-25T02:44:16;3.33;;;2.92;;
26113;SDS011;13966;48.828;9.064;2023-04-25T02:46:42;6.07;;;3.05;;
26113;SDS011;13966;48.828;9.064;2023-04-25T02:49:08;5.68;;;3.22;;
26113;SDS011;13966;48.828;9.064;2023-04-25T02:51:34;4.63;;;3.50;;
26113;SDS011;13966;48.828;9.064;2023-04-25T02:54:00;4.40;;;3.15;;
26113;SDS011;13966;48.828;9.064;2023-04-25T02:56:26;7.18;;;3.60;;
26113;SDS011;13966;48.828;9.064;2023-04-25T02:58:52;5.88;;;3.10;;
26113;SDS011;13966;48.828;9.064;2023-04-25T03:01:18;4.75;;;3.00;;
26113;SDS011;13966;48.828;9.064;2023-04-25T03:03:45;4.88;;;2.80;;
26113;SDS011;13966;48.828;9.064;2023-04-25T03:06:11;6.10;;;3.20;;
26113;SDS011;13966;48.828;9.064;2023-04-25T03:08:37;5.15;;;3.20;;
26113;SDS011;13966;48.828;9.064;2023-04-25T03:11:03;5.95;;;3.40;;
26113;SDS011;13966;48.828;9.064;2023-04-25T03:13:29;4.28;;;2.95;;
26113;SDS011;13966;48.828;9.064;2023-04-25T03:15:55;3.55;;;3.00;;
26113;SDS011;13966;48.828;9.064;2023-04-25T03:18:21;3.63;;;2.65;;
26113;SDS011;13966;48.828;9.064;2023-04-25T03:20:47;5.80;;;3.63;;
26113;SDS011;13966;48.828;9.064;2023-04-25T03:23:13;3.53;;;3.17;;
26113;SDS011;13966;48.828;9.064;2023-04-25T03:25:39;4.43;;;3.55;;
26113;SDS011;13966;48.828;9.064;2023-04-25T03:28:05;4.43;;;3.30;;
26113;SDS011;13966;48.828;9.064;2023-04-25T03:30:31;4.80;;;2.95;;
26113;SDS011;13966;48.828;9.064;2023-04-25T03:32:57;5.55;;;3.20;;
26113;SDS011;13966;48.828;9.064;2023-04-25T03:35:24;6.32;;;3.55;;
26113;SDS011;13966;48.828;9.064;2023-04-25T03:37:50;5.63;;;3.40;;
26113;SDS011;13966;48.828;9.064;2023-04-25T03:40:16;3.75;;;3.30;;
26113;SDS011;13966;48.828;9.064;2023-04-25T03:42:42;5.35;;;3.38;;
26113;SDS011;13966;48.828;9.064;2023-04-25T03:45:08;4.78;;;3.35;;
26113;SDS011;13966;48.828;9.064;2023-04-25T03:47:34;5.07;;;3.35;;
26113;SDS011;13966;48.828;9.064;2023-04-25T03:50:00;5.53;;;3.08;;
26113;SDS011;13966;48.828;9.064;2023-04-25T03:52:27;5.35;;;3.10;;
26113;SDS011;13966;48.828;9.064;2023-04-25T03:54:53;5.75;;;3.47;;
26113;SDS011;13966;48.828;9.064;2023-04-25T03:57:19;5.18;;;3.10;;
26113;SDS011;13966;48.828;9.064;2023-04-25T03:59:45;3.28;;;2.97;;
26113;SDS011;13966;48.828;9.064;2023-04-25T04:02:11;5.25;;;3.10;;
26113;SDS011;13966;48.828;9.064;2023-04-25T04:04:38;6.57;;;3.53;;
26113;SDS011;13966;48.828;9.064;2023-04-25T04:07:04;5.30;;;3.30;;
26113;SDS011;13966;48.828;9.064;2023-04-25T04:09:30;4.68;;;3.30;;
26113;SDS011;13966;48.828;9.064;2023-04-25T04:11:56;4.32;;;3.10;;
26113;SDS011;13966;48.828;9.064;2023-04-25T04:14:22;6.15;;;3.70;;
26113;SDS011;13966;48.828;9.064;2023-04-25T04:16:48;5.18;;;3.70;;
26113;SDS011;13966;48.828;9.064;2023-04-25T04:19:14;5.00;;;3.38;;
26113;SDS011;13966;48.828;9.064;2023-04-25T04:21:40;5.55;;;3.25;;
26113;SDS011;13966;48.828;9.064;2023-04-25T04:24:06;7.80;;;4.88;;
26113;SDS011;13966;48.828;9.064;2023-04-25T04:26:32;6.47;;;3.90;;
26113;SDS011;13966;48.828;9.064;2023-04-25T04:28:59;8.40;;;3.70;;
26113;SDS011;13966;48.828;9.064;2023-04-25T04:31:25;5.07;;;3.63;;
26113;SDS011;13966;48.828;9.064;2023-04-25T04:33:51;5.57;;;4.13;;
26113;SDS011;13966;48.828;9.064;2023-04-25T04:36:17;4.40;;;3.65;;
26113;SDS011;13966;48.828;9.064;2023-04-25T04:38:47;6.90;;;4.43;;
26113;SDS011;13966;48.828;9.064;2023-04-25T04:41:14;8.02;;;3.80;;
26113;SDS011;13966;48.828;9.064;2023-04-25T04:43:40;6.93;;;3.65;;
26113;SDS011;13966;48.828;9.064;2023-04-25T04:46:06;6.25;;;3.60;;
26113;SDS011;13966;48.828;9.064;2023-04-25T04:48:35;5.20;;;3.90;;
26113;SDS011;13966;48.828;9.064;2023-04-25T04:51:01;6.22;;;3.70;;
26113;SDS011;13966;48.828;9.064;2023-04-25T04:53:27;4.57;;;3.60;;
26113;SDS011;13966;48.828;9.064;2023-04-25T04:55:53;6.35;;;3.60;;
26113;SDS011;13966;48.828;9.064;2023-04-25T04:58:19;4.40;;;3.70;;
26113;SDS011;13966;48.828;9.064;2023-04-25T05:00:45;4.80;;;3.85;;
26113;SDS011;13966;48.828;9.064;2023-04-25T05:03:11;5.07;;;3.90;;
26113;SDS011;13966;48.828;9.064;2023-04-25T05:05:38;6.68;;;3.97;;
26113;SDS011;13966;48.828;9.064;2023-04-25T05:08:05;7.75;;;4.53;;
26113;SDS011;13966;48.828;9.064;2023-04-25T05:10:31;7.35;;;4.22;;
26113;SDS011;13966;48.828;9.064;2023-04-25T05:12:57;4.47;;;3.85;;
26113;SDS011;13966;48.828;9.064;2023-04-25T05:15:23;7.82;;;4.20;;
26113;SDS011;13966;48.828;9.064;2023-04-25T05:17:49;7.75;;;4.60;;
26113;SDS011;13966;48.828;9.064;2023-04-25T05:20:15;6.03;;;4.43;;
26113;SDS011;13966;48.828;9.064;2023-04-25T05:22:43;4.95;;;4.18;;
26113;SDS011;13966;48.828;9.064;2023-04-25T05:25:10;6.00;;;4.70;;
26113;SDS011;13966;48.828;9.064;2023-04-25T05:27:36;6.50;;;4.00;;
26113;SDS011;13966;48.828;9.064;2023-04-25T05:30:03;6.90;;;4.60;;
26113;SDS011;13966;48.828;9.064;2023-04-25T05:32:30;7.20;;;4.50;;
26113;SDS011;13966;48.828;9.064;2023-04-25T05:34:56;5.40;;;4.32;;
26113;SDS011;13966;48.828;9.064;2023-04-25T05:37:22;5.68;;;4.60;;
26113;SDS011;13966;48.828;9.064;2023-04-25T05:39:48;6.18;;;4.35;;
26113;SDS011;13966;48.828;9.064;2023-04-25T05:42:14;7.80;;;4.55;;
26113;SDS011;13966;48.828;9.064;2023-04-25T05:44:40;6.15;;;4.60;;
26113;SDS011;13966;48.828;9.064;2023-04-25T05:47:06;5.43;;;4.22;;
26113;SDS011;13966;48.828;9.064;2023-04-25T05:49:32;4.70;;;4.07;;
26113;SDS011;13966;48.828;9.064;2023-04-25T05:51:58;11.05;;;5.22;;
26113;SDS011;13966;48.828;9.064;2023-04-25T05:54:24;5.63;;;4.10;;
26113;SDS011;13966;48.828;9.064;2023-04-25T05:56:50;6.65;;;4.38;;
26113;SDS011;13966;48.828;9.064;2023-04-25T05:59:16;8.15;;;4.45;;
26113;SDS011;13966;48.828;9.064;2023-04-25T06:01:42;5.85;;;4.85;;
26113;SDS011;13966;48.828;9.064;2023-04-25T06:04:08;8.25;;;4.32;;
26113;SDS011;13966;48.828;9.064;2023-04-25T06:06:33;5.38;;;4.10;;
26113;SDS011;13966;48.828;9.064;2023-04-25T06:08:59;6.85;;;4.40;;
26113;SDS011;13966;48.828;9.064;2023-04-25T06:11:25;8.45;;;4.90;;
26113;SDS011;13966;48.828;9.064;2023-04-25T06:13:52;6.35;;;4.28;;
26113;SDS011;13966;48.828;9.064;2023-04-25T06:16:18;5.32;;;4.10;;
26113;SDS011;13966;48.828;9.064;2023-04-25T06:18:43;4.88;;;4.13;;
26113;SDS011;13966;48.828;9.064;2023-04-25T06:21:09;7.80;;;3.80;;
26113;SDS011;13966;48.828;9.064;2023-04-25T06:23:35;4.47;;;3.60;;
26113;SDS011;13966;48.828;9.064;2023-04-25T06:26:02;5.32;;;3.90;;
26113;SDS011;13966;48.828;9.064;2023-04-25T06:28:28;6.38;;;5.20;;
26113;SDS011;13966;48.828;9.064;2023-04-25T06:30:54;4.80;;;4.00;;
26113;SDS011;13966;48.828;9.064;2023-04-25T06:33:22;5.68;;;4.35;;
26113;SDS011;13966;48.828;9.064;2023-04-25T06:35:49;7.30;;;4.10;;
26113;SDS011;13966;48.828;9.064;2023-04-25T06:38:15;5.97;;;4.10;;
26113;SDS011;13966;48.828;9.064;2023-04-25T06:40:41;6.88;;;4.70;;
26113;SDS011;13966;48.828;9.064;2023-04-25T06:43:07;8.07;;;3.95;;
26113;SDS011;13966;48.828;9.064;2023-04-25T06:45:33;7.20;;;3.92;;
26113;SDS011;13966;48.828;9.064;2023-04-25T06:47:59;3.80;;;3.28;;
26113;SDS011;13966;48.828;9.064;2023-04-25T06:50:25;5.65;;;3.30;;
26113;SDS011;13966;48.828;9.064;2023-04-25T06:52:51;5.65;;;3.30;;
26113;SDS011;13966;48.828;9.064;2023-04-25T06:55:17;6.10;;;3.72;;
26113;SDS011;13966;48.828;9.064;2023-04-25T06:57:43;4.78;;;3.47;;
26113;SDS011;13966;48.828;9.064;2023-04-25T07:00:09;5.45;;;3.90;;
26113;SDS011;13966;48.828;9.064;2023-04-25T07:02:36;5.55;;;3.72;;
26113;SDS011;13966;48.828;9.064;2023-04-25T07:05:02;6.65;;;3.72;;
26113;SDS011;13966;48.828;9.064;2023-04-25T07:07:29;4.40;;;3.40;;
26113;SDS011;13966;48.828;9.064;2023-04-25T07:09:55;16.73;;;9.30;;
26113;SDS011;13966;48.828;9.064;2023-04-25T07:12:21;6.25;;;3.65;;
26113;SDS011;13966;48.828;9.064;2023-04-25T07:14:47;5.78;;;3.83;;
26113;SDS011;13966;48.828;9.064;2023-04-25T07:17:13;6.03;;;4.25;;
26113;SDS011;13966;48.828;9.064;2023-04-25T07:19:40;6.60;;;4.10;;
26113;SDS011;13966;48.828;9.064;2023-04-25T07:22:06;7.18;;;3.67;;
26113;SDS011;13966;48.828;9.064;2023-04-25T07:24:33;6.45;;;4.18;;
26113;SDS011;13966;48.828;9.064;2023-04-25T07:26:59;7.85;;;3.67;;
26113;SDS011;13966;48.828;9.064;2023-04-25T07:29:26;5.35;;;4.05;;
26113;SDS011;13966;48.828;9.064;2023-04-25T07:31:52;7.78;;;4.15;;
26113;SDS011;13966;48.828;9.064;2023-04-25T07:34:18;6.97;;;4.03;;
26113;SDS011;13966;48.828;9.064;2023-04-25T07:36:44;5.32;;;4.32;;
26113;SDS011;13966;48.828;9.064;2023-04-25T07:39:10;5.97;;;4.22;;
26113;SDS011;13966;48.828;9.064;2023-04-25T07:41:36;5.13;;;4.20;;
26113;SDS011;13966;48.828;9.064;2023-04-25T07:44:03;6.57;;;4.53;;
26113;SDS011;13966;48.828;9.064;2023-04-25T07:46:29;5.72;;;4.03;;
26113;SDS011;13966;48.828;9.064;2023-04-25T07:48:55;5.78;;;4.22;;
26113;SDS011;13966;48.828;9.064;2023-04-25T07:51:21;5.57;;;3.85;;
26113;SDS011;13966;48.828;9.064;2023-04-25T07:53:47;5.75;;;4.10;;
26113;SDS011;13966;48.828;9.064;2023-04-25T07:56:13;5.97;;;4.18;;
26113;SDS011;13966;48.828;9.064;2023-04-25T07:58:39;5.55;;;4.30;;
26113;SDS011;13966;48.828;9.064;2023-04-25T08:01:05;6.53;;;4.43;;
26113;SDS011;13966;48.828;9.064;2023-04-25T08:03:31;6.97;;;4.82;;
26113;SDS011;13966;48.828;9.064;2023-04-25T08:05:57;6.25;;;5.00;;
26113;SDS011;13966;48.828;9.064;2023-04-25T08:08:23;9.57;;;5.50;;
26113;SDS011;13966;48.828;9.064;2023-04-25T08:10:49;5.07;;;4.53;;
26113;SDS011;13966;48.828;9.064;2023-04-25T08:13:15;6.90;;;4.72;;
26113;SDS011;13966;48.828;9.064;2023-04-25T08:15:41;5.38;;;4.68;;
26113;SDS011;13966;48.828;9.064;2023-04-25T08:18:07;7.47;;;5.65;;
26113;SDS011;13966;48.828;9.064;2023-04-25T08:20:33;8.57;;;5.38;;
26113;SDS011;13966;48.828;9.064;2023-04-25T08:22:59;8.00;;;5.55;;
26113;SDS011;13966;48.828;9.064;2023-04-25T08:25:25;10.82;;;6.05;;
26113;SDS011;13966;48.828;9.064;2023-04-25T08:27:51;7.57;;;6.13;;
26113;SDS011;13966;48.828;9.064;2023-04-25T08:30:17;9.30;;;7.00;;
26113;SDS011;13966;48.828;9.064;2023-04-25T08:32:44;8.82;;;6.78;;
26113;SDS011;13966;48.828;9.064;2023-04-25T08:35:09;8.00;;;6.38;;
26113;SDS011;13966;48.828;9.064;2023-04-25T08:37:36;6.68;;;5.72;;
26113;SDS011;13966;48.828;9.064;2023-04-25T08:40:03;6.38;;;5.28;;
26113;SDS011;13966;48.828;9.064;2023-04-25T08:42:32;7.38;;;5.53;;
26113;SDS011;13966;48.828;9.064;2023-04-25T08:45:00;6.80;;;5.38;;
26113;SDS011;13966;48.828;9.064;2023-04-25T08:47:28;9.07;;;5.53;;
26113;SDS011;13966;48.828;9.064;2023-04-25T08:49:55;7.55;;;5.57;;
26113;SDS011;13966;48.828;9.064;2023-04-25T08:52:22;6.97;;;4.75;;
26113;SDS011;13966;48.828;9.064;2023-04-25T08:54:49;6.45;;;4.68;;
26113;SDS011;13966;48.828;9.064;2023-04-25T08:57:16;8.10;;;5.45;;
26113;SDS011;13966;48.828;9.064;2023-04-25T08:59:42;7.15;;;5.55;;
26113;SDS011;13966;48.828;9.064;2023-04-25T09:02:11;6.85;;;5.63;;
26113;SDS011;13966;48.828;9.064;2023-04-25T09:04:41;6.88;;;5.32;;
26113;SDS011;13966;48.828;9.064;2023-04-25T09:07:07;8.57;;;5.95;;
26113;SDS011;13966;48.828;9.064;2023-04-25T09:09:33;7.28;;;5.72;;
26113;SDS011;13966;48.828;9.064;2023-04-25T09:11:59;7.43;;;5.72;;
26113;SDS011;13966;48.828;9.064;2023-04-25T09:14:26;7.38;;;5.15;;
26113;SDS011;13966;48.828;9.064;2023-04-25T09:19:22;8.05;;;6.47;;
26113;SDS011;13966;48.828;9.064;2023-04-25T09:21:48;7.45;;;5.72;;
26113;SDS011;13966;48.828;9.064;2023-04-25T09:24:15;8.10;;;5.35;;
26113;SDS011;13966;48.828;9.064;2023-04-25T09:26:41;5.70;;;4.70;;
26113;SDS011;13966;48.828;9.064;2023-04-25T09:29:08;7.43;;;4.68;;
26113;SDS011;13966;48.828;9.064;2023-04-25T09:31:35;7.03;;;4.93;;
26113;SDS011;13966;48.828;9.064;2023-04-25T09:34:02;8.80;;;5.60;;
26113;SDS011;13966;48.828;9.064;2023-04-25T09:36:29;9.82;;;6.97;;
26113;SDS011;13966;48.828;9.064;2023-04-25T09:38:55;11.68;;;6.97;;
26113;SDS011;13966;48.828;9.064;2023-04-25T09:41:24;9.52;;;6.72;;
26113;SDS011;13966;48.828;9.064;2023-04-25T09:43:50;7.85;;;5.57;;
26113;SDS011;13966;48.828;9.064;2023-04-25T09:46:16;7.55;;;5.68;;
26113;SDS011;13966;48.828;9.064;2023-04-25T09:48:49;5.80;;;3.67;;
26113;SDS011;13966;48.828;9.064;2023-04-25T09:51:15;13.13;;;8.75;;
26113;SDS011;13966;48.828;9.064;2023-04-25T09:53:42;6.53;;;4.57;;
26113;SDS011;13966;48.828;9.064;2023-04-25T09:56:09;7.80;;;5.68;;
26113;SDS011;13966;48.828;9.064;2023-04-25T09:58:36;6.07;;;4.85;;
26113;SDS011;13966;48.828;9.064;2023-04-25T10:01:03;4.80;;;3.00;;
26113;SDS011;13966;48.828;9.064;2023-04-25T10:03:31;16.48;;;9.05;;
26113;SDS011;13966;48.828;9.064;2023-04-25T10:05:59;4.93;;;3.80;;
26113;SDS011;13966;48.828;9.064;2023-04-25T10:08:25;5.68;;;3.13;;
26113;SDS011;13966;48.828;9.064;2023-04-25T10:10:53;5.95;;;4.25;;
26113;SDS011;13966;48.828;9.064;2023-04-25T10:13:19;4.35;;;3.20;;
26113;SDS011;13966;48.828;9.064;2023-04-25T10:15:45;3.92;;;3.47;;
26113;SDS011;13966;48.828;9.064;2023-04-25T10:18:12;5.25;;;4.25;;
26113;SDS011;13966;48.828;9.064;2023-04-25T10:20:38;7.18;;;4.30;;
26113;SDS011;13966;48.828;9.064;2023-04-25T10:23:10;6.07;;;4.70;;
26113;SDS011;13966;48.828;9.064;2023-04-25T10:25:37;5.35;;;4.07;;
26113;SDS011;13966;48.828;9.064;2023-04-25T10:28:04;4.53;;;3.60;;
26113;SDS011;13966;48.828;9.064;2023-04-25T10:30:31;6.20;;;3.80;;
26113;SDS011;13966;48.828;9.064;2023-04-25T10:32:58;7.38;;;6.15;;
26113;SDS011;13966;48.828;9.064;2023-04-25T10:35:25;10.23;;;7.28;;
26113;SDS011;13966;48.828;9.064;2023-04-25T10:40:32;9.55;;;7.03;;
26113;SDS011;13966;48.828;9.064;2023-04-25T10:43:32;12.50;;;9.20;;
26113;SDS011;13966;48.828;9.064;2023-04-25T10:46:00;10.82;;;7.10;;
26113;SDS011;13966;48.828;9.064;2023-04-25T10:48:29;8.60;;;6.00;;
26113;SDS011;13966;48.828;9.064;2023-04-25T10:51:10;9.65;;;7.25;;
26113;SDS011;13966;48.828;9.064;2023-04-25T10:53:37;8.45;;;5.72;;
26113;SDS011;13966;48.828;9.064;2023-04-25T10:56:10;5.03;;;4.38;;
26113;SDS011;13966;48.828;9.064;2023-04-25T10:58:41;4.82;;;3.90;;
26113;SDS011;13966;48.828;9.064;2023-04-25T11:03:37;5.47;;;3.47;;
26113;SDS011;13966;48.828;9.064;2023-04-25T11:06:03;6.78;;;4.20;;
26113;SDS011;13966;48.828;9.064;2023-04-25T11:08:35;6.32;;;4.75;;
26113;SDS011;13966;48.828;9.064;2023-04-25T11:11:03;11.88;;;5.60;;
26113;SDS011;13966;48.828;9.064;2023-04-25T11:13:29;6.97;;;4.85;;
26113;SDS011;13966;48.828;9.064;2023-04-25T11:15:55;3.55;;;3.03;;
26113;SDS011;13966;48.828;9.064;2023-04-25T11:18:21;3.90;;;2.80;;
26113;SDS011;13966;48.828;9.064;2023-04-25T11:20:47;5.85;;;3.00;;
26113;SDS011;13966;48.828;9.064;2023-04-25T11:23:13;4.85;;;2.97;;
26113;SDS011;13966;48.828;9.064;2023-04-25T11:25:41;4.47;;;3.53;;
26113;SDS011;13966;48.828;9.064;2023-04-25T11:28:07;5.50;;;4.15;;
26113;SDS011;13966;48.828;9.064;2023-04-25T11:30:33;6.03;;;3.85;;
26113;SDS011;13966;48.828;9.064;2023-04-25T11:32:59;5.85;;;3.83;;
26113;SDS011;13966;48.828;9.064;2023-04-25T11:35:27;6.25;;;3.50;;
26113;SDS011;13966;48.828;9.064;2023-04-25T11:37:53;7.60;;;3.50;;
26113;SDS011;13966;48.828;9.064;2023-04-25T11:40:19;5.47;;;4.55;;
26113;SDS011;13966;48.828;9.064;2023-04-25T11:42:46;11.43;;;4.82;;
26113;SDS011;13966;48.828;9.064;2023-04-25T11:45:12;5.40;;;4.25;;
26113;SDS011;13966;48.828;9.064;2023-04-25T11:47:38;6.25;;;4.43;;
26113;SDS011;13966;48.828;9.064;2023-04-25T11:50:06;5.32;;;3.80;;
26113;SDS011;13966;48.828;9.064;2023-04-25T11:52:50;4.32;;;3.90;;
26113;SDS011;13966;48.828;9.064;2023-04-25T11:55:18;4.90;;;4.30;;
26113;SDS011;13966;48.828;9.064;2023-04-25T11:57:45;5.68;;;4.93;;
26113;SDS011;13966;48.828;9.064;2023-04-25T12:00:15;8.60;;;5.57;;
26113;SDS011;13966;48.828;9.064;2023-04-25T12:02:42;8.05;;;5.82;;
26113;SDS011;13966;48.828;9.064;2023-04-25T12:05:09;8.77;;;5.65;;
26113;SDS011;13966;48.828;9.064;2023-04-25T12:07:35;7.25;;;5.05;;
26113;SDS011;13966;48.828;9.064;2023-04-25T12:10:06;9.65;;;6.05;;
26113;SDS011;13966;48.828;9.064;2023-04-25T12:12:34;10.60;;;6.90;;
26113;SDS011;13966;48.828;9.064;2023-04-25T12:15:22;12.30;;;7.93;;
26113;SDS011;13966;48.828;9.064;2023-04-25T12:17:49;12.77;;;8.27;;
26113;SDS011;13966;48.828;9.064;2023-04-25T12:20:17;11.07;;;7.32;;
26113;SDS011;13966;48.828;9.064;2023-04-25T12:22:44;13.43;;;7.40;;
26113;SDS011;13966;48.828;9.064;2023-04-25T12:25:12;9.48;;;6.72;;
26113;SDS011;13966;48.828;9.064;2023-04-25T12:27:38;8.52;;;6.15;;
26113;SDS011;13966;48.828;9.064;2023-04-25T12:30:08;9.63;;;5.90;;
26113;SDS011;13966;48.828;9.064;2023-04-25T12:32:35;8.90;;;6.80;;
26113;SDS011;13966;48.828;9.064;2023-04-25T12:35:02;7.32;;;5.47;;
26113;SDS011;13966;48.828;9.064;2023-04-25T12:37:28;6.05;;;5.13;;
26113;SDS011;13966;48.828;9.064;2023-04-25T12:39:55;7.63;;;4.97;;
26113;SDS011;13966;48.828;9.064;2023-04-25T12:42:21;5.35;;;4.35;;
26113;SDS011;13966;48.828;9.064;2023-04-25T12:44:48;6.65;;;4.72;;
26113;SDS011;13966;48.828;9.064;2023-04-25T12:47:14;8.35;;;5.00;;
26113;SDS011;13966;48.828;9.064;2023-04-25T12:49:40;13.10;;;6.22;;
26113;SDS011;13966;48.828;9.064;2023-04-25T12:52:06;7.40;;;4.32;;
26113;SDS011;13966;48.828;9.064;2023-04-25T12:54:32;10.90;;;4.72;;
26113;SDS011;13966;48.828;9.064;2023-04-25T12:56:59;5.80;;;4.65;;
26113;SDS011;13966;48.828;9.064;2023-04-25T12:59:27;6.63;;;4.00;;
26113;SDS011;13966;48.828;9.064;2023-04-25T13:01:53;4.47;;;3.88;;
26113;SDS011;13966;48.828;9.064;2023-04-25T13:04:19;10.07;;;4.22;;
26113;SDS011;13966;48.828;9.064;2023-04-25T13:06:46;7.07;;;4.47;;
26113;SDS011;13966;48.828;9.064;2023-04-25T13:09:12;8.13;;;4.72;;
26113;SDS011;13966;48.828;9.064;2023-04-25T13:11:38;9.95;;;5.45;;
26113;SDS011;13966;48.828;9.064;2023-04-25T13:14:05;9.85;;;5.60;;
26113;SDS011;13966;48.828;9.064;2023-04-25T13:16:31;7.80;;;5.63;;
26113;SDS011;13966;48.828;9.064;2023-04-25T13:18:57;8.93;;;5.93;;
26113;SDS011;13966;48.828;9.064;2023-04-25T13:21:24;11.55;;;5.95;;
26113;SDS011;13966;48.828;9.064;2023-04-25T13:23:50;13.35;;;7.03;;
26113;SDS011;13966;48.828;9.064;2023-04-25T13:26:16;15.70;;;8.40;;
26113;SDS011;13966;48.828;9.064;2023-04-25T13:28:42;13.40;;;8.65;;
26113;SDS011;13966;48.828;9.064;2023-04-25T13:31:08;13.73;;;7.82;;
26113;SDS011;13966;48.828;9.064;2023-04-25T13:33:34;11.05;;;7.07;;
26113;SDS011;13966;48.828;9.064;2023-04-25T13:38:28;12.32;;;6.80;;
26113;SDS011;13966;48.828;9.064;2023-04-25T13:40:54;11.05;;;6.10;;
26113;SDS011;13966;48.828;9.064;2023-04-25T13:43:21;9.55;;;6.20;;
26113;SDS011;13966;48.828;9.064;2023-04-25T13:45:47;10.52;;;6.65;;
26113;SDS011;13966;48.828;9.064;2023-04-25T13:48:13;8.90;;;5.97;;
26113;SDS011;13966;48.828;9.064;2023-04-25T13:50:39;7.20;;;5.18;;
26113;SDS011;13966;48.828;9.064;2023-04-25T13:53:05;8.80;;;5.85;;
26113;SDS011;13966;48.828;9.064;2023-04-25T13:55:31;9.20;;;5.53;;
26113;SDS011;13966;48.828;9.064;2023-04-25T13:57:57;7.60;;;4.70;;
26113;SDS011;13966;48.828;9.064;2023-04-25T14:00:24;6.00;;;4.25;;
26113;SDS011;13966;48.828;9.064;2023-04-25T14:02:50;6.28;;;4.10;;
26113;SDS011;13966;48.828;9.064;2023-04-25T14:05:16;7.72;;;4.13;;
26113;SDS011;13966;48.828;9.064;2023-04-25T14:07:42;7.47;;;3.88;;
26113;SDS011;13966;48.828;9.064;2023-04-25T14:10:08;7.47;;;3.58;;
26113;SDS011;13966;48.828;9.064;2023-04-25T14:12:34;4.88;;;3.70;;
26113;SDS011;13966;48.828;9.064;2023-04-25T14:15:00;5.80;;;3.70;;
26113;SDS011;13966;48.828;9.064;2023-04-25T14:17:26;8.30;;;3.88;;
26113;SDS011;13966;48.828;9.064;2023-04-25T14:19:52;5.70;;;3.85;;
26113;SDS011;13966;48.828;9.064;2023-04-25T14:22:18;6.47;;;3.97;;
26113;SDS011;13966;48.828;9.064;2023-04-25T14:24:44;4.38;;;3.45;;
26113;SDS011;13966;48.828;9.064;2023-04-25T14:27:10;7.00;;;3.90;;
26113;SDS011;13966;48.828;9.064;2023-04-25T14:29:36;8.95;;;4.57;;
26113;SDS011;13966;48.828;9.064;2023-04-25T14:32:03;6.28;;;3.90;;
26113;SDS011;13966;48.828;9.064;2023-04-25T14:34:30;6.38;;;3.90;;
26113;SDS011;13966;48.828;9.064;2023-04-25T14:36:56;4.63;;;3.78;;
26113;SDS011;13966;48.828;9.064;2023-04-25T14:39:22;5.65;;;3.97;;
26113;SDS011;13966;48.828;9.064;2023-04-25T14:41:48;6.47;;;4.40;;
26113;SDS011;13966;48.828;9.064;2023-04-25T14:44:14;9.25;;;4.35;;
26113;SDS011;13966;48.828;9.064;2023-04-25T14:46:40;9.02;;;4.38;;
26113;SDS011;13966;48.828;9.064;2023-04-25T14:49:06;8.63;;;4.22;;
26113;SDS011;13966;48.828;9.064;2023-04-25T14:51:32;5.38;;;3.58;;